Time;durP1;ratioP1;P1;durP2;ratioP2;P2;SDS_P1;SDS_P2;PMS_P1;PMS_P2;Temp;Humidity;BMP_temperature;BMP_pressure;BME280_temperature;BME280_humidity;BME280_pressure;Samples;Min_cycle;Max_cycle;Signal;HPM_P1;HPM_P2
2022/11/15 00:01:26;;;;;;;24.90;17.50;;;7.60;99.90;;;;;;4937716;29;20055;-82
2022/11/15 00:03:52;;;;;;;30.15;19.73;;;7.50;99.90;;;;;;4922087;29;20514;-82
2022/11/15 00:06:18;;;;;;;28.92;20.20;;;8.60;99.90;;;;;;4938779;29;20122;-82
2022/11/15 00:08:43;;;;;;;27.27;18.80;;;7.70;99.90;;;;;;4920426;29;20389;-82
2022/11/15 00:11:11;;;;;;;29.85;18.70;;;7.50;99.90;;;;;;4938047;29;20078;-82
2022/11/15 00:13:36;;;;;;;30.02;20.00;;;7.70;99.90;;;;;;4923300;29;20039;-82
2022/11/15 00:16:03;;;;;;;28.85;19.13;;;8.20;99.90;;;;;;4924125;29;20102;-82
2022/11/15 00:18:29;;;;;;;28.67;18.63;;;7.50;99.90;;;;;;4938406;29;20066;-81
2022/11/15 00:20:55;;;;;;;28.70;17.98;;;8.30;99.90;;;;;;4923274;29;20058;-82
2022/11/15 00:23:21;;;;;;;26.77;16.92;;;7.50;99.90;;;;;;4953878;29;20146;-81
2022/11/15 00:25:47;;;;;;;28.65;19.15;;;7.60;99.90;;;;;;4938179;29;20126;-82
2022/11/15 00:28:13;;;;;;;30.30;18.63;;;7.50;99.90;;;;;;4921877;29;20399;-81
2022/11/15 00:30:38;;;;;;;27.95;18.67;;;7.50;99.90;;;;;;4921065;28;20095;-81
2022/11/15 00:33:05;;;;;;;27.65;18.30;;;7.50;99.90;;;;;;4921770;29;21008;-81
2022/11/15 00:35:33;;;;;;;27.10;18.70;;;7.50;99.90;;;;;;4922100;29;20039;-81
2022/11/15 00:37:59;;;;;;;25.27;14.27;;;7.40;99.90;;;;;;4952661;29;20502;-81
2022/11/15 00:40:25;;;;;;;28.85;18.00;;;7.40;99.90;;;;;;4921589;29;20051;-81
2022/11/15 00:42:50;;;;;;;29.75;18.20;;;7.40;99.90;;;;;;4921782;29;20149;-81
2022/11/15 00:45:16;;;;;;;27.05;17.88;;;7.40;99.90;;;;;;4953574;29;20086;-81
2022/11/15 00:47:45;;;;;;;25.13;14.90;;;7.40;99.90;;;;;;4898538;29;20043;-79
2022/11/15 00:50:11;;;;;;;28.70;18.20;;;7.40;99.90;;;;;;4912969;29;20050;-81
2022/11/15 00:52:37;;;;;;;30.05;17.85;;;7.40;99.90;;;;;;4937060;29;20133;-81
2022/11/15 00:55:03;;;;;;;27.10;17.75;;;8.50;99.90;;;;;;4937038;29;20047;-80
2022/11/15 00:57:28;;;;;;;29.95;18.10;;;7.40;99.90;;;;;;4921780;29;20113;-80
2022/11/15 00:59:54;;;;;;;31.08;18.67;;;7.90;99.90;;;;;;4920925;29;20565;-79
2022/11/15 01:02:20;;;;;;;28.80;18.05;;;7.30;99.90;;;;;;4921103;29;20090;-81
2022/11/15 01:04:46;;;;;;;30.55;19.23;;;7.50;99.90;;;;;;4937770;29;20090;-81
2022/11/15 01:07:11;;;;;;;31.02;19.08;;;7.40;99.90;;;;;;4939535;29;20043;-80
2022/11/15 01:09:37;;;;;;;31.58;19.35;;;7.30;99.90;;;;;;4939347;29;20479;-81
2022/11/15 01:12:03;;;;;;;30.83;18.63;;;7.30;99.90;;;;;;4922490;29;20035;-81
2022/11/15 01:14:28;;;;;;;33.70;18.77;;;7.30;99.90;;;;;;4954312;29;20075;-81
2022/11/15 01:16:54;;;;;;;32.95;18.83;;;7.40;99.90;;;;;;4956360;29;20043;-80
2022/11/15 01:19:20;;;;;;;31.15;19.48;;;7.60;99.90;;;;;;4927283;29;20047;-82
2022/11/15 01:21:48;;;;;;;28.67;17.13;;;7.40;99.90;;;;;;4936642;29;20054;-82
2022/11/15 01:24:14;;;;;;;30.25;18.67;;;7.40;99.90;;;;;;4944342;29;20496;-81
2022/11/15 01:26:40;;;;;;;37.13;21.25;;;7.40;99.90;;;;;;4920127;29;20129;-81
2022/11/15 01:29:05;;;;;;;33.70;19.30;;;7.40;99.90;;;;;;4936121;29;20416;-81
2022/11/15 01:31:31;;;;;;;34.75;20.55;;;7.40;99.90;;;;;;4920765;29;20126;-82
2022/11/15 01:33:57;;;;;;;29.20;19.33;;;7.40;99.90;;;;;;4936087;29;20039;-81
2022/11/15 01:36:23;;;;;;;29.25;19.10;;;7.40;99.90;;;;;;4936271;29;20084;-82
2022/11/15 01:38:56;;;;;;;30.10;17.77;;;7.50;99.90;;;;;;4920996;29;20046;-79
2022/11/15 01:41:25;;;;;;;33.05;18.63;;;7.50;99.90;;;;;;4952436;28;20047;-82
2022/11/15 01:43:56;;;;;;;33.10;19.98;;;7.50;99.90;;;;;;4952564;29;20126;-80
2022/11/15 01:46:33;;;;;;;34.95;19.98;;;7.50;99.90;;;;;;4935422;29;20050;-82
2022/11/15 01:49:05;;;;;;;35.03;19.20;;;8.50;99.90;;;;;;4952071;29;20051;-82
2022/11/15 01:51:33;;;;;;;35.10;20.23;;;7.50;99.90;;;;;;4936336;29;20051;-80
2022/11/15 01:54:12;;;;;;;34.08;19.15;;;7.70;99.90;;;;;;4936440;29;20039;-79
2022/11/15 01:56:51;;;;;;;34.63;18.92;;;7.60;99.90;;;;;;4936379;29;20090;-80
2022/11/15 01:59:18;;;;;;;32.25;18.92;;;7.60;99.90;;;;;;4944318;29;20616;-80
2022/11/15 02:01:44;;;;;;;33.50;19.27;;;7.80;99.90;;;;;;4935078;29;20507;-80
2022/11/15 02:04:09;;;;;;;30.98;17.58;;;7.60;99.90;;;;;;4920504;29;20047;-80
2022/11/15 02:06:36;;;;;;;30.67;18.17;;;7.60;99.90;;;;;;4935856;29;20506;-82
2022/11/15 02:09:02;;;;;;;34.97;20.92;;;8.00;99.90;;;;;;4936337;29;20035;-83
2022/11/15 02:11:28;;;;;;;34.90;19.75;;;7.60;99.90;;;;;;4936635;29;20047;-80
2022/11/15 02:13:56;;;;;;;37.50;18.77;;;7.60;99.90;;;;;;4920050;29;20093;-80
2022/11/15 02:16:53;;;;;;;35.90;19.88;;;7.70;99.90;;;;;;4935456;29;20054;-80
2022/11/15 02:19:31;;;;;;;36.13;20.20;;;7.70;99.90;;;;;;4936129;29;20143;-80
2022/11/15 02:22:24;;;;;;;36.30;19.83;;;7.70;99.90;;;;;;4927363;29;20039;-80
2022/11/15 02:25:08;;;;;;;37.00;20.35;;;7.70;99.90;;;;;;4923094;29;20046;-80
2022/11/15 02:27:52;;;;;;;38.38;20.80;;;7.70;99.90;;;;;;4951384;29;20432;-83
2022/11/15 02:30:34;;;;;;;40.63;20.85;;;7.70;99.90;;;;;;4950097;28;20044;-80
2022/11/15 02:33:23;;;;;;;38.38;21.02;;;7.80;99.90;;;;;;4935389;29;20133;-80
2022/11/15 02:36:02;;;;;;;39.92;22.08;;;7.70;99.90;;;;;;4928672;29;20043;-80
2022/11/15 02:38:36;;;;;;;45.42;22.70;;;7.80;99.90;;;;;;4951467;29;20114;-80
2022/11/15 02:41:30;;;;;;;42.35;21.83;;;7.80;99.90;;;;;;4935304;29;20067;-80
2022/11/15 02:44:14;;;;;;;43.60;22.27;;;7.80;99.90;;;;;;4935651;29;20047;-80
2022/11/15 02:49:32;;;;;;;42.17;20.52;;;7.90;99.90;;;;;;4958787;28;20481;-80
2022/11/15 02:51:58;;;;;;;37.00;21.30;;;7.90;99.90;;;;;;4935277;29;20134;-80
2022/11/15 02:54:26;;;;;;;39.53;19.83;;;7.90;99.90;;;;;;4937862;29;20539;-82
2022/11/15 02:56:55;;;;;;;38.00;19.58;;;7.90;99.90;;;;;;4939698;29;20432;-80
2022/11/15 02:59:40;;;;;;;45.05;22.98;;;8.00;99.90;;;;;;4949032;29;20046;-80
2022/11/15 03:02:15;;;;;;;45.08;22.92;;;8.00;99.90;;;;;;4938833;29;20059;-80
2022/11/15 03:04:45;;;;;;;45.03;21.40;;;8.00;99.90;;;;;;4938856;29;20051;-80
2022/11/15 03:07:34;;;;;;;45.97;23.05;;;8.10;99.90;;;;;;4955094;29;20054;-82
2022/11/15 03:10:07;;;;;;;44.25;22.23;;;8.00;99.90;;;;;;4944729;29;20399;-82
2022/11/15 03:12:51;;;;;;;49.95;23.70;;;8.10;99.90;;;;;;4931499;29;20368;-80
2022/11/15 03:15:46;;;;;;;47.83;22.00;;;8.10;99.90;;;;;;4938812;29;20047;-80
2022/11/15 03:18:34;;;;;;;50.67;23.73;;;8.10;99.90;;;;;;4954342;29;21015;-80
2022/11/15 03:21:04;;;;;;;43.55;22.58;;;8.50;99.90;;;;;;4954637;29;20424;-81
2022/11/15 03:23:31;;;;;;;43.90;22.42;;;8.20;99.90;;;;;;4946518;29;20043;-80
2022/11/15 03:25:59;;;;;;;40.95;21.40;;;8.20;99.90;;;;;;4939634;29;20134;-80
2022/11/15 03:28:37;;;;;;;33.63;17.92;;;8.20;99.90;;;;;;4938941;29;20140;-80
2022/11/15 03:31:46;;;;;;;47.17;22.40;;;8.20;99.90;;;;;;4945757;29;20039;-80
2022/11/15 03:33:53;;;;;;;45.15;23.42;;;8.30;99.90;;;;;;4954238;29;20043;-80
2022/11/15 03:36:21;;;;;;;34.28;19.75;;;8.30;99.90;;;;;;4938722;29;20483;-80
2022/11/15 03:38:47;;;;;;;50.65;23.75;;;8.30;99.90;;;;;;4938101;29;20483;-80
2022/11/15 03:41:27;;;;;;;36.95;20.13;;;8.40;99.90;;;;;;4938104;29;20567;-80
2022/11/15 03:44:35;;;;;;;54.10;24.30;;;8.40;99.90;;;;;;4939062;29;20130;-80
2022/11/15 03:47:09;;;;;;;46.33;24.15;;;8.40;99.90;;;;;;4912646;29;20046;-81
2022/11/15 03:49:39;;;;;;;47.67;23.88;;;8.50;99.90;;;;;;4953829;29;20135;-80
2022/11/15 03:52:05;;;;;;;43.97;23.67;;;8.40;99.90;;;;;;4938783;29;20035;-80
2022/11/15 03:54:31;;;;;;;48.30;23.48;;;8.50;99.90;;;;;;4922644;29;20047;-80
2022/11/15 03:56:57;;;;;;;46.78;24.10;;;8.70;99.90;;;;;;4938573;29;20105;-80
2022/11/15 03:59:22;;;;;;;54.17;26.13;;;8.50;99.90;;;;;;4938289;29;20043;-80
2022/11/15 04:01:48;;;;;;;51.78;26.48;;;8.60;99.90;;;;;;4937860;29;20062;-80
2022/11/15 04:04:14;;;;;;;43.67;24.38;;;8.50;99.90;;;;;;4936527;28;20440;-80
2022/11/15 04:06:40;;;;;;;60.50;28.95;;;8.60;99.90;;;;;;4936144;29;20480;-80
2022/11/15 04:09:05;;;;;;;65.03;27.15;;;8.60;99.90;;;;;;4922081;29;20051;-80
2022/11/15 04:11:31;;;;;;;57.70;25.63;;;8.80;99.90;;;;;;4922126;29;20053;-80
2022/11/15 04:13:57;;;;;;;44.30;23.15;;;8.60;99.90;;;;;;4922634;29;20043;-80
2022/11/15 04:16:22;;;;;;;66.78;27.73;;;8.60;99.90;;;;;;4937745;29;20038;-80
2022/11/15 04:24:11;;;;;;;63.17;28.98;;;8.70;99.90;;;;;;4899258;29;20035;-80
2022/11/15 04:24:17;;;;;;;70.68;30.30;;;8.70;99.90;;;;;;4940144;29;20051;-80
2022/11/15 04:26:43;;;;;;;49.20;23.85;;;8.70;99.90;;;;;;4937968;29;20047;-80
2022/11/15 04:31:53;;;;;;;62.95;27.58;;;8.80;99.90;;;;;;4939655;29;20051;-80
2022/11/15 04:34:19;;;;;;;61.40;28.90;;;8.80;99.90;;;;;;4937464;29;20100;-82
2022/11/15 04:37:17;;;;;;;73.13;32.33;;;8.90;99.90;;;;;;4937653;29;20106;-80
2022/11/15 04:39:36;;;;;;;71.32;31.23;;;8.90;99.90;;;;;;4938587;29;20089;-81
2022/11/15 04:42:01;;;;;;;58.88;29.90;;;8.90;99.90;;;;;;4952979;29;20523;-81
2022/11/15 04:44:27;;;;;;;67.80;30.08;;;8.90;99.90;;;;;;4921744;29;20452;-81
2022/11/15 04:46:53;;;;;;;76.55;32.33;;;9.00;99.90;;;;;;4921342;29;20043;-80
2022/11/15 04:49:18;;;;;;;77.43;33.30;;;9.00;99.90;;;;;;4922200;29;20118;-80
2022/11/15 04:51:44;;;;;;;53.72;25.95;;;9.10;99.90;;;;;;4921918;29;20090;-80
2022/11/15 04:54:10;;;;;;;68.88;30.48;;;9.10;99.90;;;;;;4929829;29;20037;-80
2022/11/15 04:56:36;;;;;;;58.83;27.75;;;9.10;99.90;;;;;;4921443;29;20118;-81
2022/11/15 04:59:01;;;;;;;60.85;29.85;;;9.10;99.90;;;;;;4922299;29;20039;-80
2022/11/15 05:01:27;;;;;;;61.55;31.45;;;9.10;99.90;;;;;;4937304;29;20087;-80
2022/11/15 05:06:37;;;;;;;56.58;29.60;;;9.10;99.90;;;;;;4952950;29;20051;-80
2022/11/15 05:09:03;;;;;;;50.63;26.90;;;9.20;99.90;;;;;;4922097;29;20118;-81
2022/11/15 05:11:28;;;;;;;50.65;28.52;;;9.20;99.90;;;;;;4922680;29;20044;-80
2022/11/15 05:13:54;;;;;;;47.30;26.10;;;9.20;99.90;;;;;;4936005;29;20042;-80
2022/11/15 05:16:20;;;;;;;49.33;25.30;;;9.30;99.90;;;;;;4938169;29;20082;-80
2022/11/15 05:18:45;;;;;;;49.33;28.38;;;10.20;99.90;;;;;;4926005;29;20047;-79
2022/11/15 05:21:14;;;;;;;45.08;25.63;;;9.30;99.90;;;;;;4955200;29;20043;-78
2022/11/15 05:23:40;;;;;;;50.65;29.00;;;9.40;99.90;;;;;;4966612;29;20157;-79
2022/11/15 05:26:08;;;;;;;47.85;27.75;;;9.40;99.90;;;;;;4938158;29;20039;-80
2022/11/15 05:28:34;;;;;;;55.22;27.52;;;9.40;99.90;;;;;;4921315;29;20082;-80
2022/11/15 05:31:01;;;;;;;52.22;28.48;;;9.50;99.90;;;;;;4920516;29;20475;-82
2022/11/15 05:33:27;;;;;;;53.35;29.52;;;9.50;99.90;;;;;;4960809;28;20122;-82
2022/11/15 05:36:12;;;;;;;62.08;30.98;;;9.50;99.90;;;;;;4952731;29;20123;-80
2022/11/15 05:38:38;;;;;;;44.92;24.05;;;9.60;99.90;;;;;;4937392;29;20047;-81
2022/11/15 05:41:04;;;;;;;54.30;26.63;;;9.60;99.90;;;;;;4935904;29;20046;-80
2022/11/15 05:43:31;;;;;;;59.67;30.77;;;9.50;99.90;;;;;;4936205;29;20518;-81
2022/11/15 05:45:58;;;;;;;46.88;28.60;;;9.60;99.90;;;;;;4952249;29;20049;-81
2022/11/15 05:48:24;;;;;;;65.97;30.48;;;9.60;99.90;;;;;;4928571;29;20042;-81
2022/11/15 05:50:50;;;;;;;54.30;29.35;;;9.70;99.90;;;;;;4944043;29;20043;-81
2022/11/15 05:53:19;;;;;;;53.50;27.95;;;9.70;99.90;;;;;;4897187;29;20039;-80
2022/11/15 05:55:45;;;;;;;50.60;26.15;;;9.70;99.90;;;;;;4928614;29;20046;-81
2022/11/15 05:58:11;;;;;;;62.78;30.40;;;9.70;99.90;;;;;;4920654;29;20057;-80
2022/11/15 06:00:37;;;;;;;58.17;28.70;;;9.70;99.90;;;;;;4934846;29;20055;-81
2022/11/15 06:03:02;;;;;;;62.28;29.58;;;9.80;99.90;;;;;;4894582;29;20043;-81
2022/11/15 06:05:28;;;;;;;66.47;31.65;;;9.80;99.90;;;;;;4929526;29;20389;-81
2022/11/15 06:07:58;;;;;;;60.38;29.45;;;9.90;99.90;;;;;;4894395;29;20489;-81
2022/11/15 06:10:24;;;;;;;55.97;29.75;;;9.90;99.90;;;;;;4925917;29;20493;-81
2022/11/15 06:13:01;;;;;;;57.25;28.70;;;9.90;99.90;;;;;;4893633;29;20077;-81
2022/11/15 06:15:27;;;;;;;60.40;30.25;;;9.90;99.90;;;;;;4909931;29;20396;-80
2022/11/15 06:17:57;;;;;;;43.00;23.88;;;9.90;99.90;;;;;;4896129;29;20043;-81
2022/11/15 06:20:26;;;;;;;57.95;28.85;;;9.90;99.90;;;;;;4910535;29;20385;-81
2022/11/15 06:23:05;;;;;;;53.40;28.17;;;10.00;99.90;;;;;;4910370;29;20512;-81
2022/11/15 06:25:31;;;;;;;52.17;29.55;;;10.00;99.90;;;;;;4911458;29;20039;-82
2022/11/15 06:27:58;;;;;;;47.40;27.00;;;10.10;99.90;;;;;;4892897;29;20395;-81
2022/11/15 06:30:25;;;;;;;47.95;26.23;;;10.10;99.90;;;;;;4910419;29;20396;-81
2022/11/15 06:32:51;;;;;;;53.75;29.63;;;10.10;99.90;;;;;;4926759;29;20595;-81
2022/11/15 06:35:17;;;;;;;52.47;26.75;;;10.10;99.90;;;;;;4911113;29;20045;-82
2022/11/15 06:37:43;;;;;;;45.95;24.60;;;10.10;99.90;;;;;;4910060;29;20131;-81
2022/11/15 06:40:10;;;;;;;50.20;26.80;;;10.20;99.90;;;;;;4910813;29;20126;-81
2022/11/15 06:42:36;;;;;;;47.17;28.10;;;10.20;99.90;;;;;;4894987;29;20219;-81
2022/11/15 06:45:02;;;;;;;48.78;25.60;;;10.30;99.90;;;;;;4911180;29;20118;-81
2022/11/15 06:47:27;;;;;;;43.70;25.27;;;10.20;99.90;;;;;;4926171;29;20110;-81
2022/11/15 06:49:53;;;;;;;38.20;22.33;;;10.20;99.90;;;;;;4910363;29;20539;-81
2022/11/15 06:52:19;;;;;;;44.42;26.42;;;10.30;99.90;;;;;;4909815;29;20041;-81
2022/11/15 06:54:45;;;;;;;44.50;26.55;;;10.30;99.90;;;;;;4896902;29;20039;-81
2022/11/15 06:57:11;;;;;;;42.88;26.55;;;10.30;99.90;;;;;;4909217;29;20504;-81
2022/11/15 06:59:37;;;;;;;39.72;24.50;;;10.20;99.90;;;;;;4910550;29;20063;-81
2022/11/15 07:02:03;;;;;;;51.42;26.67;;;10.30;99.90;;;;;;4925933;29;20463;-81
2022/11/15 07:04:29;;;;;;;39.38;24.50;;;10.40;99.90;;;;;;4950432;29;20076;-81
2022/11/15 07:06:54;;;;;;;48.90;25.58;;;10.40;99.90;;;;;;4936187;29;20083;-81
2022/11/15 07:09:20;;;;;;;39.28;24.10;;;10.40;99.90;;;;;;4951970;29;20039;-81
2022/11/15 07:11:46;;;;;;;40.20;25.70;;;10.40;99.90;;;;;;4919672;29;20078;-81
2022/11/15 07:14:12;;;;;;;42.05;25.67;;;10.50;99.90;;;;;;4919864;29;20039;-81
2022/11/15 07:16:37;;;;;;;47.22;25.90;;;10.40;99.90;;;;;;4936513;29;20511;-81
2022/11/15 07:19:03;;;;;;;42.70;24.50;;;10.40;99.90;;;;;;4936883;29;20122;-81
2022/11/15 07:21:29;;;;;;;38.70;24.73;;;10.50;99.90;;;;;;4928603;29;20047;-81
2022/11/15 07:23:55;;;;;;;45.33;25.88;;;10.50;99.90;;;;;;4936654;29;20174;-81
2022/11/15 07:26:21;;;;;;;35.40;21.30;;;10.70;99.90;;;;;;4929196;29;20079;-81
2022/11/15 07:28:46;;;;;;;32.22;21.17;;;10.60;99.90;;;;;;4920553;29;20043;-81
2022/11/15 07:31:12;;;;;;;36.22;25.23;;;10.60;99.90;;;;;;4921450;29;20670;-81
2022/11/15 07:33:38;;;;;;;36.97;23.25;;;10.60;99.90;;;;;;4920812;29;20110;-81
2022/11/15 07:36:06;;;;;;;36.50;24.52;;;10.60;99.90;;;;;;4935901;29;20118;-81
2022/11/15 07:38:32;;;;;;;35.42;24.60;;;10.60;99.90;;;;;;4953472;29;21959;-81
2022/11/15 07:41:01;;;;;;;32.88;20.92;;;10.70;99.90;;;;;;4940191;29;20042;-81
2022/11/15 07:43:30;;;;;;;37.88;24.20;;;10.70;99.90;;;;;;4948901;29;20050;-82
2022/11/15 07:45:56;;;;;;;40.97;23.38;;;10.70;99.90;;;;;;4924558;29;20075;-81
2022/11/15 07:48:22;;;;;;;38.85;24.25;;;10.70;99.90;;;;;;4939854;29;20046;-81
2022/11/15 07:50:48;;;;;;;33.55;23.55;;;10.70;99.90;;;;;;4962098;28;20039;-81
2022/11/15 07:53:14;;;;;;;40.00;24.25;;;10.60;99.90;;;;;;4924517;29;20074;-81
2022/11/15 07:55:41;;;;;;;41.47;24.38;;;10.70;99.90;;;;;;4923546;29;20085;-81
2022/11/15 07:58:09;;;;;;;34.95;21.75;;;10.70;99.90;;;;;;4938600;29;20039;-82
2022/11/15 08:00:35;;;;;;;37.90;23.20;;;10.70;99.90;;;;;;4953955;29;20049;-82
2022/11/15 08:03:15;;;;;;;37.80;23.63;;;10.70;99.90;;;;;;4939229;29;20495;-81
2022/11/15 08:05:42;;;;;;;34.53;23.15;;;10.70;99.90;;;;;;4938394;29;20134;-82
2022/11/15 08:08:10;;;;;;;35.88;21.65;;;10.70;99.90;;;;;;4938225;29;20054;-81
2022/11/15 08:10:37;;;;;;;34.20;21.83;;;10.70;99.90;;;;;;4953373;29;20058;-81
2022/11/15 08:13:05;;;;;;;39.53;24.00;;;10.70;99.90;;;;;;4953649;29;20046;-81
2022/11/15 08:15:32;;;;;;;43.72;23.92;;;10.80;99.90;;;;;;4953927;29;21071;-81
2022/11/15 08:18:00;;;;;;;39.50;22.50;;;10.80;99.90;;;;;;4953970;29;20114;-81
2022/11/15 08:20:30;;;;;;;37.33;23.33;;;10.80;99.90;;;;;;4953505;29;20528;-82
2022/11/15 08:22:57;;;;;;;36.90;23.83;;;10.90;99.90;;;;;;4953363;29;20047;-82
2022/11/15 08:25:26;;;;;;;34.05;22.75;;;10.90;99.90;;;;;;4937707;29;20051;-81
2022/11/15 08:27:57;;;;;;;35.30;22.80;;;11.40;99.90;;;;;;4937941;29;20376;-82
2022/11/15 08:30:23;;;;;;;30.38;20.52;;;11.20;99.90;;;;;;4937879;28;20054;-81
2022/11/15 08:32:50;;;;;;;31.05;21.77;;;10.90;99.90;;;;;;4898996;29;20043;-81
2022/11/15 08:35:17;;;;;;;29.65;20.38;;;10.90;99.90;;;;;;4937782;29;20050;-81
2022/11/15 08:37:43;;;;;;;32.30;21.92;;;11.00;99.90;;;;;;4953833;29;20499;-81
2022/11/15 08:40:09;;;;;;;31.05;20.95;;;11.00;99.90;;;;;;4953607;29;20054;-81
2022/11/15 08:42:36;;;;;;;34.63;22.52;;;11.00;99.90;;;;;;4938642;29;20156;-81
2022/11/15 08:45:02;;;;;;;35.80;22.60;;;11.10;99.90;;;;;;4937963;29;20090;-82
2022/11/15 08:47:28;;;;;;;31.48;23.42;;;11.10;99.90;;;;;;4937556;29;20057;-82
2022/11/15 08:49:53;;;;;;;32.75;21.77;;;11.10;99.90;;;;;;4953710;29;20555;-82
2022/11/15 08:52:19;;;;;;;36.22;23.02;;;11.10;99.90;;;;;;4921315;29;20043;-82
2022/11/15 08:54:45;;;;;;;30.27;20.52;;;11.10;99.90;;;;;;4937706;29;20043;-81
2022/11/15 08:57:11;;;;;;;34.17;22.55;;;11.10;99.90;;;;;;4929169;29;20492;-82
2022/11/15 08:59:37;;;;;;;34.25;23.50;;;11.20;99.90;;;;;;4937568;29;20500;-82
2022/11/15 09:02:03;;;;;;;32.80;22.13;;;11.20;99.90;;;;;;4921562;29;20062;-83
2022/11/15 09:04:29;;;;;;;31.98;21.85;;;11.20;99.90;;;;;;4936643;29;20083;-82
2022/11/15 09:06:56;;;;;;;31.65;21.70;;;11.20;99.90;;;;;;4906184;29;20081;-82
2022/11/15 09:09:21;;;;;;;32.53;22.70;;;11.30;99.90;;;;;;4954299;29;20083;-82
2022/11/15 09:11:47;;;;;;;35.15;22.75;;;11.30;99.90;;;;;;4937177;29;20504;-82
2022/11/15 09:14:13;;;;;;;35.10;21.58;;;11.30;99.90;;;;;;4921186;29;20455;-82
2022/11/15 09:16:39;;;;;;;32.72;22.58;;;11.30;99.90;;;;;;4940815;29;20094;-82
2022/11/15 09:19:05;;;;;;;28.70;20.23;;;11.30;99.90;;;;;;4935543;29;20035;-81
2022/11/15 09:21:31;;;;;;;26.10;18.75;;;11.30;99.90;;;;;;4942953;29;20047;-80
2022/11/15 09:23:57;;;;;;;30.60;20.70;;;11.40;99.90;;;;;;4941010;29;20780;-81
2022/11/15 09:26:23;;;;;;;28.95;18.90;;;11.40;99.90;;;;;;4938977;29;20069;-81
2022/11/15 09:28:48;;;;;;;30.75;20.65;;;11.40;99.90;;;;;;4943403;29;20133;-82
2022/11/15 09:31:14;;;;;;;29.52;20.23;;;11.40;99.90;;;;;;4919835;29;20046;-82
2022/11/15 09:33:42;;;;;;;29.13;19.98;;;11.40;99.90;;;;;;4952152;28;20465;-81
2022/11/15 09:36:09;;;;;;;24.92;18.92;;;11.40;99.90;;;;;;4951600;29;20043;-81
2022/11/15 09:38:35;;;;;;;26.17;19.02;;;11.40;99.90;;;;;;4936225;29;20039;-81
2022/11/15 09:41:10;;;;;;;23.25;16.33;;;11.40;99.90;;;;;;4920580;29;20118;-80
2022/11/15 09:44:00;;;;;;;26.95;18.45;;;11.40;99.90;;;;;;4936448;29;20086;-80
2022/11/15 09:46:38;;;;;;;25.73;19.55;;;11.50;99.90;;;;;;4942846;29;20059;-80
2022/11/15 09:49:04;;;;;;;25.15;18.38;;;11.50;99.90;;;;;;4927601;29;20045;-80
2022/11/15 09:51:46;;;;;;;26.63;18.13;;;11.50;99.90;;;;;;4929142;29;20074;-80
2022/11/15 09:54:24;;;;;;;24.40;17.83;;;11.50;99.90;;;;;;4936598;29;20087;-80
2022/11/15 09:56:51;;;;;;;22.77;17.73;;;11.50;99.90;;;;;;4952481;29;20046;-80
2022/11/15 09:59:19;;;;;;;20.85;14.98;;;11.50;99.90;;;;;;4928682;29;20170;-80
2022/11/15 10:02:10;;;;;;;20.02;16.27;;;11.50;99.90;;;;;;4936382;29;20059;-81
2022/11/15 10:04:37;;;;;;;17.42;14.32;;;11.60;99.90;;;;;;4935193;29;20130;-81
2022/11/15 10:07:27;;;;;;;19.90;13.63;;;11.60;99.90;;;;;;4936539;29;20058;-81
2022/11/15 10:10:11;;;;;;;18.73;14.32;;;11.60;99.90;;;;;;4951435;29;20102;-81
2022/11/15 10:12:37;;;;;;;18.70;15.05;;;11.60;99.90;;;;;;4935492;29;20097;-82
2022/11/15 10:15:09;;;;;;;20.33;13.40;;;11.70;99.90;;;;;;4921134;29;20487;-81
2022/11/15 10:17:41;;;;;;;19.25;14.15;;;11.70;99.90;;;;;;4952162;29;20043;-81
2022/11/15 10:20:10;;;;;;;18.27;14.27;;;11.70;99.90;;;;;;4952069;29;20110;-81
2022/11/15 10:22:47;;;;;;;19.13;12.82;;;11.80;99.90;;;;;;4951234;29;20070;-81
2022/11/15 10:25:17;;;;;;;17.67;13.10;;;11.80;99.90;;;;;;4936476;29;20050;-81
2022/11/15 10:27:47;;;;;;;16.80;12.80;;;11.80;99.90;;;;;;4936633;29;20043;-82
2022/11/15 10:30:17;;;;;;;15.63;11.63;;;11.90;99.90;;;;;;4935916;29;20039;-81
2022/11/15 10:32:44;;;;;;;17.40;11.85;;;11.90;99.90;;;;;;4951274;28;20035;-81
2022/11/15 10:35:36;;;;;;;17.48;11.93;;;11.90;99.90;;;;;;4919285;29;20070;-81
2022/11/15 10:38:08;;;;;;;19.88;10.90;;;12.00;99.90;;;;;;4932276;29;20093;-80
2022/11/15 10:40:34;;;;;;;14.45;9.68;;;12.00;99.90;;;;;;4936359;29;20058;-81
2022/11/15 10:43:26;;;;;;;13.85;9.27;;;12.00;99.90;;;;;;4935988;29;20087;-80
2022/11/15 10:45:52;;;;;;;14.35;9.30;;;12.00;99.90;;;;;;4941502;28;20083;-80
2022/11/15 10:48:18;;;;;;;13.50;9.25;;;12.00;99.90;;;;;;4934874;29;20531;-81
2022/11/15 10:50:46;;;;;;;14.48;9.57;;;11.90;99.90;;;;;;4934852;29;20043;-80
2022/11/15 10:53:21;;;;;;;12.20;8.73;;;12.00;99.90;;;;;;4935261;29;20562;-80
2022/11/15 10:55:49;;;;;;;11.05;7.25;;;12.00;99.90;;;;;;4950920;28;20488;-80
2022/11/15 10:58:31;;;;;;;14.57;7.50;;;12.00;99.90;;;;;;4935162;29;20062;-80
2022/11/15 11:01:10;;;;;;;13.90;6.82;;;12.00;99.90;;;;;;4943620;29;20055;-80
2022/11/15 11:03:38;;;;;;;14.73;7.80;;;12.20;99.90;;;;;;4949737;28;20062;-80
2022/11/15 11:06:07;;;;;;;9.57;6.78;;;12.30;99.90;;;;;;4948966;28;20052;-80
2022/11/15 11:08:33;;;;;;;8.98;6.20;;;12.30;99.90;;;;;;4951835;29;20051;-80
2022/11/15 11:11:01;;;;;;;14.63;7.22;;;12.40;99.90;;;;;;4934055;29;20516;-80
2022/11/15 11:13:31;;;;;;;11.15;6.70;;;12.50;99.90;;;;;;4935302;29;20046;-80
2022/11/15 11:16:05;;;;;;;11.90;7.15;;;12.50;99.90;;;;;;4936097;29;20130;-81
2022/11/15 11:18:44;;;;;;;13.45;7.45;;;12.60;99.90;;;;;;4953844;28;20051;-80
2022/11/15 11:21:49;;;;;;;11.43;7.00;;;12.70;99.90;;;;;;4932637;29;20075;-81
2022/11/15 11:24:28;;;;;;;9.32;5.72;;;12.80;99.90;;;;;;4939871;28;20059;-80
2022/11/15 11:26:57;;;;;;;9.73;5.07;;;12.90;99.90;;;;;;4952821;28;20053;-79
2022/11/15 11:29:34;;;;;;;9.80;5.10;;;12.90;99.90;;;;;;4928468;29;20055;-79
2022/11/15 11:32:12;;;;;;;8.25;5.45;;;12.90;99.90;;;;;;4929855;29;20075;-79
2022/11/15 11:34:50;;;;;;;10.52;5.22;;;12.80;99.90;;;;;;4953265;29;20040;-79
2022/11/15 11:37:39;;;;;;;9.13;5.10;;;12.80;99.90;;;;;;4953362;29;20095;-79
2022/11/15 11:40:11;;;;;;;7.78;5.50;;;12.80;99.90;;;;;;4937798;29;20607;-79
2022/11/15 11:42:57;;;;;;;12.50;5.35;;;12.80;99.90;;;;;;4937909;29;20098;-81
2022/11/15 11:45:57;;;;;;;10.23;5.50;;;12.90;99.90;;;;;;4930072;29;20039;-81
2022/11/15 11:48:35;;;;;;;7.15;5.47;;;13.00;99.90;;;;;;4933332;29;20396;-82
2022/11/15 11:51:19;;;;;;;6.97;4.78;;;12.90;99.90;;;;;;4928532;29;20576;-81
2022/11/15 11:53:57;;;;;;;8.82;4.75;;;12.90;99.90;;;;;;4954659;29;20106;-81
2022/11/15 11:56:26;;;;;;;11.10;4.88;;;12.90;99.90;;;;;;4938000;28;20133;-81
2022/11/15 11:58:55;;;;;;;6.10;3.78;;;12.90;99.90;;;;;;4938927;29;20185;-81
2022/11/15 12:01:30;;;;;;;9.32;4.90;;;12.90;99.90;;;;;;4938350;29;20436;-81
2022/11/15 12:04:20;;;;;;;7.45;4.63;;;13.00;99.90;;;;;;4903233;29;20040;-81
2022/11/15 12:07:13;;;;;;;7.47;4.45;;;13.10;99.90;;;;;;4903206;29;20060;-81
2022/11/15 12:09:58;;;;;;;8.35;4.50;;;13.00;99.90;;;;;;4903043;29;20044;-81
2022/11/15 12:12:47;;;;;;;9.02;3.78;;;13.00;99.90;;;;;;4916740;29;20044;-81
2022/11/15 12:15:25;;;;;;;9.90;3.90;;;13.00;99.90;;;;;;4903676;29;20461;-81
2022/11/15 12:17:52;;;;;;;8.05;4.07;;;13.00;99.90;;;;;;4902999;29;20051;-81
2022/11/15 12:20:26;;;;;;;5.60;4.30;;;13.00;99.90;;;;;;4887769;29;20039;-81
2022/11/15 12:23:13;;;;;;;8.38;3.83;;;12.90;99.90;;;;;;4902633;29;20040;-81
2022/11/15 12:25:53;;;;;;;7.07;3.95;;;13.00;99.90;;;;;;4901633;29;20456;-81
2022/11/15 12:28:45;;;;;;;5.97;3.60;;;12.90;99.90;;;;;;4903169;29;20500;-81
2022/11/15 12:31:29;;;;;;;4.30;3.10;;;12.80;99.90;;;;;;4903367;29;20095;-81
2022/11/15 12:33:57;;;;;;;4.15;2.85;;;12.80;99.90;;;;;;4896829;29;20040;-81
2022/11/15 12:36:23;;;;;;;5.78;2.90;;;12.80;99.90;;;;;;4918040;29;20130;-80
2022/11/15 12:38:57;;;;;;;4.68;3.10;;;12.80;99.90;;;;;;4903014;29;20040;-81
2022/11/15 12:41:34;;;;;;;7.10;3.20;;;12.80;99.90;;;;;;4910254;29;20114;-81
2022/11/15 12:44:01;;;;;;;4.85;2.90;;;12.90;99.90;;;;;;4902324;29;20086;-81
2022/11/15 12:46:29;;;;;;;4.43;2.90;;;12.80;99.90;;;;;;4886656;29;20050;-80
2022/11/15 12:49:30;;;;;;;4.95;2.47;;;12.80;99.90;;;;;;4902676;29;20126;-80
2022/11/15 12:52:08;;;;;;;3.83;2.42;;;12.80;99.90;;;;;;4902569;29;20632;-81
2022/11/15 12:54:40;;;;;;;5.43;2.50;;;12.80;99.90;;;;;;4918721;29;20051;-81
2022/11/15 12:57:06;;;;;;;5.28;2.60;;;12.80;99.90;;;;;;4902923;29;20052;-81
2022/11/15 12:59:54;;;;;;;5.20;2.30;;;12.90;99.90;;;;;;4917946;29;20083;-81
2022/11/15 13:02:47;;;;;;;4.90;2.35;;;12.90;99.90;;;;;;4912516;29;20094;-81
2022/11/15 13:05:18;;;;;;;5.15;2.22;;;12.80;99.90;;;;;;4936901;29;20038;-81